Munson Township, Ohio
Current Conditions -  °F | °C
As of 12:45 PM on Thursday 29 Jan 2015 (Local Time) from KCGF Reporting Station
Overcast Overcast  
Wind Chill: 28°   Ceiling: 5000
Heat Index: 37°   Visibility: 7mi
Dew Point: 30°   Wind: 17mph
Humidity: 75%   Direction: 180°S
Pressure: 29.76"   Gusts: 29mph
Location:  41.4475°N, 81.4018°W
Report Text: KCGF 291745Z 18015G25KT 7SM SCT035 OVC050 03/M01 A2976
Loading
Personal Weather Stations






























Interactive Weather Map New forecast layout! Learn more

10-Day Weather Forecast

Advertisements
Track Severe Weather on mobile